馬祖北竿航空站 - ATIS

METAR RCMT 182300Z 36009KT 330V030 9999 FEW013 13/07 Q1023 NOSIG RMK A3022(B)=

站台狀態:Online
最後更新:2019-01-19 07:30:02